Stillwater, Oklahoma
Current Conditions -  °F | °C
As of 10:53 PM on Saturday 25 Oct 2014 (Local Time) from KSWO Reporting Station
Clear Clear  
Wind Chill: 68°   Ceiling: Unl
Heat Index: 68°   Visibility: 10mi
Dew Point: 59°   Wind: 5mph
Humidity: 73%   Direction: 190°S
Pressure: 29.98"   Gusts: NA
Location:  36.12°N, 97.06°W
Report Text: KSWO 260353Z AUTO 19004KT 10SM CLR 20/15 A2998 RMK AO2 SLP141 T02000150
Loading
Personal Weather Stations






























Interactive Weather Map
Tropical Storm Tracking
New forecast layout! Learn more

10-Day Weather Forecast

Advertisements
Track Severe Weather on mobile